sensor_id;sensor_type;location;lat;lon;timestamp;temperature;humidity
63537;DHT22;49686;51.880;5.632;2022-08-11T00:02:27;16.30;99.90
63537;DHT22;49686;51.880;5.632;2022-08-11T00:05:02;16.20;99.90
63537;DHT22;49686;51.880;5.632;2022-08-11T00:07:31;16.20;99.90
63537;DHT22;49686;51.880;5.632;2022-08-11T00:09:58;16.10;99.90
63537;DHT22;49686;51.880;5.632;2022-08-11T00:12:28;16.00;99.90
63537;DHT22;49686;51.880;5.632;2022-08-11T00:14:59;15.90;99.90
63537;DHT22;49686;51.880;5.632;2022-08-11T00:17:27;15.90;99.90
63537;DHT22;49686;51.880;5.632;2022-08-11T00:20:02;15.80;99.90
63537;DHT22;49686;51.880;5.632;2022-08-11T00:22:46;15.70;99.90
63537;DHT22;49686;51.880;5.632;2022-08-11T00:25:17;15.70;99.90
63537;DHT22;49686;51.880;5.632;2022-08-11T00:27:45;15.60;99.90
63537;DHT22;49686;51.880;5.632;2022-08-11T00:30:12;15.60;99.90
63537;DHT22;49686;51.880;5.632;2022-08-11T00:32:41;15.60;99.90
63537;DHT22;49686;51.880;5.632;2022-08-11T00:35:12;15.60;99.90
63537;DHT22;49686;51.880;5.632;2022-08-11T00:37:59;15.50;99.90
63537;DHT22;49686;51.880;5.632;2022-08-11T00:40:35;15.40;99.90
63537;DHT22;49686;51.880;5.632;2022-08-11T00:43:16;15.40;99.90
63537;DHT22;49686;51.880;5.632;2022-08-11T00:46:08;15.40;99.90
63537;DHT22;49686;51.880;5.632;2022-08-11T00:48:43;15.40;99.90
63537;DHT22;49686;51.880;5.632;2022-08-11T00:51:17;15.30;99.90
63537;DHT22;49686;51.880;5.632;2022-08-11T00:53:51;15.30;99.90
63537;DHT22;49686;51.880;5.632;2022-08-11T00:57:06;15.30;99.90
63537;DHT22;49686;51.880;5.632;2022-08-11T01:00:05;15.10;99.90
63537;DHT22;49686;51.880;5.632;2022-08-11T01:03:04;15.20;99.90
63537;DHT22;49686;51.880;5.632;2022-08-11T01:09:02;15.10;99.90
63537;DHT22;49686;51.880;5.632;2022-08-11T01:11:55;15.10;99.90
63537;DHT22;49686;51.880;5.632;2022-08-11T01:18:09;15.10;99.90
63537;DHT22;49686;51.880;5.632;2022-08-11T01:21:13;15.10;99.90
63537;DHT22;49686;51.880;5.632;2022-08-11T01:27:23;15.00;99.90
63537;DHT22;49686;51.880;5.632;2022-08-11T01:30:19;14.90;99.90
63537;DHT22;49686;51.880;5.632;2022-08-11T01:42:23;14.60;99.90
63537;DHT22;49686;51.880;5.632;2022-08-11T01:45:15;14.50;99.90
63537;DHT22;49686;51.880;5.632;2022-08-11T01:47:58;14.60;99.90
63537;DHT22;49686;51.880;5.632;2022-08-11T01:50:38;14.60;99.90
63537;DHT22;49686;51.880;5.632;2022-08-11T01:53:27;14.50;99.90
63537;DHT22;49686;51.880;5.632;2022-08-11T01:56:09;14.50;99.90
63537;DHT22;49686;51.880;5.632;2022-08-11T01:58:42;14.50;99.90
63537;DHT22;49686;51.880;5.632;2022-08-11T02:01:30;14.50;99.90
63537;DHT22;49686;51.880;5.632;2022-08-11T02:04:06;14.40;99.90
63537;DHT22;49686;51.880;5.632;2022-08-11T02:06:40;14.40;99.90
63537;DHT22;49686;51.880;5.632;2022-08-11T02:09:15;14.40;99.90
63537;DHT22;49686;51.880;5.632;2022-08-11T02:11:54;14.50;99.90
63537;DHT22;49686;51.880;5.632;2022-08-11T02:14:41;14.50;99.90
63537;DHT22;49686;51.880;5.632;2022-08-11T02:17:47;14.30;99.90
63537;DHT22;49686;51.880;5.632;2022-08-11T02:20:21;14.20;99.90
63537;DHT22;49686;51.880;5.632;2022-08-11T02:22:51;14.30;99.90
63537;DHT22;49686;51.880;5.632;2022-08-11T02:25:27;14.30;99.90
63537;DHT22;49686;51.880;5.632;2022-08-11T02:28:01;14.20;99.90
63537;DHT22;49686;51.880;5.632;2022-08-11T02:30:34;14.00;99.90
63537;DHT22;49686;51.880;5.632;2022-08-11T02:33:15;14.00;99.90
63537;DHT22;49686;51.880;5.632;2022-08-11T02:35:56;14.00;99.90
63537;DHT22;49686;51.880;5.632;2022-08-11T02:38:27;14.00;99.90
63537;DHT22;49686;51.880;5.632;2022-08-11T02:41:04;14.00;99.90
63537;DHT22;49686;51.880;5.632;2022-08-11T02:43:49;14.10;99.90
63537;DHT22;49686;51.880;5.632;2022-08-11T02:46:22;14.10;99.90
63537;DHT22;49686;51.880;5.632;2022-08-11T02:49:04;14.20;99.90
63537;DHT22;49686;51.880;5.632;2022-08-11T02:51:41;14.10;99.90
63537;DHT22;49686;51.880;5.632;2022-08-11T02:54:21;14.10;99.90
63537;DHT22;49686;51.880;5.632;2022-08-11T02:56:58;14.00;99.90
63537;DHT22;49686;51.880;5.632;2022-08-11T02:59:40;14.00;99.90
63537;DHT22;49686;51.880;5.632;2022-08-11T03:02:16;14.00;99.90
63537;DHT22;49686;51.880;5.632;2022-08-11T03:04:57;13.90;99.90
63537;DHT22;49686;51.880;5.632;2022-08-11T03:07:29;14.00;99.90
63537;DHT22;49686;51.880;5.632;2022-08-11T03:10:02;13.90;99.90
63537;DHT22;49686;51.880;5.632;2022-08-11T03:12:40;13.80;99.90
63537;DHT22;49686;51.880;5.632;2022-08-11T03:15:11;13.70;99.90
63537;DHT22;49686;51.880;5.632;2022-08-11T03:20:34;13.70;99.90
63537;DHT22;49686;51.880;5.632;2022-08-11T03:23:11;13.60;99.90
63537;DHT22;49686;51.880;5.632;2022-08-11T03:25:50;13.50;99.90
63537;DHT22;49686;51.880;5.632;2022-08-11T03:28:27;13.50;99.90
63537;DHT22;49686;51.880;5.632;2022-08-11T03:31:06;13.50;99.90
63537;DHT22;49686;51.880;5.632;2022-08-11T03:33:37;13.50;99.90
63537;DHT22;49686;51.880;5.632;2022-08-11T03:36:16;13.50;99.90
63537;DHT22;49686;51.880;5.632;2022-08-11T03:38:56;13.40;99.90
63537;DHT22;49686;51.880;5.632;2022-08-11T03:41:31;13.40;99.90
63537;DHT22;49686;51.880;5.632;2022-08-11T03:44:41;13.40;99.90
63537;DHT22;49686;51.880;5.632;2022-08-11T03:47:22;13.40;99.90
63537;DHT22;49686;51.880;5.632;2022-08-11T03:50:01;13.40;99.90
63537;DHT22;49686;51.880;5.632;2022-08-11T03:52:41;13.40;99.90
63537;DHT22;49686;51.880;5.632;2022-08-11T03:55:18;13.30;99.90
63537;DHT22;49686;51.880;5.632;2022-08-11T03:58:17;13.30;99.90
63537;DHT22;49686;51.880;5.632;2022-08-11T04:01:18;13.40;99.90
63537;DHT22;49686;51.880;5.632;2022-08-11T04:04:18;13.30;99.90
63537;DHT22;49686;51.880;5.632;2022-08-11T04:07:13;13.30;99.90
63537;DHT22;49686;51.880;5.632;2022-08-11T04:16:15;13.20;99.90
63537;DHT22;49686;51.880;5.632;2022-08-11T04:22:46;13.40;99.90
63537;DHT22;49686;51.880;5.632;2022-08-11T04:28:47;13.40;99.90
63537;DHT22;49686;51.880;5.632;2022-08-11T04:31:40;13.40;99.90
63537;DHT22;49686;51.880;5.632;2022-08-11T04:34:50;13.30;99.90
63537;DHT22;49686;51.880;5.632;2022-08-11T04:37:35;13.30;99.90
63537;DHT22;49686;51.880;5.632;2022-08-11T04:40:33;13.20;99.90
63537;DHT22;49686;51.880;5.632;2022-08-11T04:43:44;13.40;99.90
63537;DHT22;49686;51.880;5.632;2022-08-11T04:47:01;13.50;99.90
63537;DHT22;49686;51.880;5.632;2022-08-11T04:50:00;13.80;99.90
63537;DHT22;49686;51.880;5.632;2022-08-11T04:53:01;13.90;99.90
63537;DHT22;49686;51.880;5.632;2022-08-11T04:56:00;14.00;99.90
63537;DHT22;49686;51.880;5.632;2022-08-11T04:58:44;14.10;99.90
63537;DHT22;49686;51.880;5.632;2022-08-11T05:01:26;14.20;99.90
63537;DHT22;49686;51.880;5.632;2022-08-11T05:04:20;14.30;99.90
63537;DHT22;49686;51.880;5.632;2022-08-11T05:07:19;14.40;99.90
63537;DHT22;49686;51.880;5.632;2022-08-11T05:10:05;14.50;99.90
63537;DHT22;49686;51.880;5.632;2022-08-11T05:12:41;14.60;99.90
63537;DHT22;49686;51.880;5.632;2022-08-11T05:15:15;14.80;99.90
63537;DHT22;49686;51.880;5.632;2022-08-11T05:17:45;15.00;99.90
63537;DHT22;49686;51.880;5.632;2022-08-11T05:20:15;15.20;99.90
63537;DHT22;49686;51.880;5.632;2022-08-11T05:22:47;15.30;99.90
63537;DHT22;49686;51.880;5.632;2022-08-11T05:25:17;15.60;99.90
63537;DHT22;49686;51.880;5.632;2022-08-11T05:28:08;15.60;99.90
63537;DHT22;49686;51.880;5.632;2022-08-11T05:30:36;15.80;99.90
63537;DHT22;49686;51.880;5.632;2022-08-11T05:33:04;15.90;99.90
63537;DHT22;49686;51.880;5.632;2022-08-11T05:35:40;15.90;99.90
63537;DHT22;49686;51.880;5.632;2022-08-11T05:38:33;16.00;99.90
63537;DHT22;49686;51.880;5.632;2022-08-11T05:41:00;17.50;99.90
63537;DHT22;49686;51.880;5.632;2022-08-11T05:43:29;18.60;99.90
63537;DHT22;49686;51.880;5.632;2022-08-11T05:46:01;18.90;99.90
63537;DHT22;49686;51.880;5.632;2022-08-11T05:48:35;19.00;99.90
63537;DHT22;49686;51.880;5.632;2022-08-11T05:51:03;19.70;99.90
63537;DHT22;49686;51.880;5.632;2022-08-11T05:53:45;19.80;99.90
63537;DHT22;49686;51.880;5.632;2022-08-11T05:56:14;19.90;99.90
63537;DHT22;49686;51.880;5.632;2022-08-11T05:58:45;19.90;99.90
63537;DHT22;49686;51.880;5.632;2022-08-11T06:01:20;20.20;99.80
63537;DHT22;49686;51.880;5.632;2022-08-11T06:03:51;20.30;99.80
63537;DHT22;49686;51.880;5.632;2022-08-11T06:06:26;20.60;99.30
63537;DHT22;49686;51.880;5.632;2022-08-11T06:08:57;20.40;99.00
63537;DHT22;49686;51.880;5.632;2022-08-11T06:11:24;20.80;98.80
63537;DHT22;49686;51.880;5.632;2022-08-11T06:14:11;21.80;97.50
63537;DHT22;49686;51.880;5.632;2022-08-11T06:16:42;21.90;96.40
63537;DHT22;49686;51.880;5.632;2022-08-11T06:19:21;22.10;95.90
63537;DHT22;49686;51.880;5.632;2022-08-11T06:21:48;21.60;96.40
63537;DHT22;49686;51.880;5.632;2022-08-11T06:24:21;22.20;95.70
63537;DHT22;49686;51.880;5.632;2022-08-11T06:26:50;22.30;95.70
63537;DHT22;49686;51.880;5.632;2022-08-11T06:29:47;22.10;95.40
63537;DHT22;49686;51.880;5.632;2022-08-11T06:32:24;21.80;94.90
63537;DHT22;49686;51.880;5.632;2022-08-11T06:35:09;23.10;93.80
63537;DHT22;49686;51.880;5.632;2022-08-11T06:37:56;23.30;93.30
63537;DHT22;49686;51.880;5.632;2022-08-11T06:40:34;22.40;93.80
63537;DHT22;49686;51.880;5.632;2022-08-11T06:43:09;22.30;93.70
63537;DHT22;49686;51.880;5.632;2022-08-11T06:45:40;23.00;93.40
63537;DHT22;49686;51.880;5.632;2022-08-11T06:48:15;23.10;93.10
63537;DHT22;49686;51.880;5.632;2022-08-11T06:50:48;23.50;92.90
63537;DHT22;49686;51.880;5.632;2022-08-11T06:53:19;23.80;92.30
63537;DHT22;49686;51.880;5.632;2022-08-11T06:55:48;23.40;92.20
63537;DHT22;49686;51.880;5.632;2022-08-11T06:58:27;23.30;92.80
63537;DHT22;49686;51.880;5.632;2022-08-11T07:01:02;24.30;91.20
63537;DHT22;49686;51.880;5.632;2022-08-11T07:03:33;24.80;90.60
63537;DHT22;49686;51.880;5.632;2022-08-11T07:06:18;24.80;89.80
63537;DHT22;49686;51.880;5.632;2022-08-11T07:09:08;25.00;88.90
63537;DHT22;49686;51.880;5.632;2022-08-11T07:11:58;24.20;88.20
63537;DHT22;49686;51.880;5.632;2022-08-11T07:14:26;25.00;87.20
63537;DHT22;49686;51.880;5.632;2022-08-11T07:17:02;25.20;87.30
63537;DHT22;49686;51.880;5.632;2022-08-11T07:19:29;25.00;86.20
63537;DHT22;49686;51.880;5.632;2022-08-11T07:21:56;25.70;84.30
63537;DHT22;49686;51.880;5.632;2022-08-11T07:24:38;25.30;84.40
63537;DHT22;49686;51.880;5.632;2022-08-11T07:27:27;24.90;85.60
63537;DHT22;49686;51.880;5.632;2022-08-11T07:30:04;24.90;84.20
63537;DHT22;49686;51.880;5.632;2022-08-11T07:32:40;25.10;84.40
63537;DHT22;49686;51.880;5.632;2022-08-11T07:35:12;24.60;84.00
63537;DHT22;49686;51.880;5.632;2022-08-11T07:37:44;25.30;81.90
63537;DHT22;49686;51.880;5.632;2022-08-11T07:40:13;24.60;81.80
63537;DHT22;49686;51.880;5.632;2022-08-11T07:42:39;25.40;81.70
63537;DHT22;49686;51.880;5.632;2022-08-11T07:45:12;26.20;79.20
63537;DHT22;49686;51.880;5.632;2022-08-11T07:47:40;26.00;80.70
63537;DHT22;49686;51.880;5.632;2022-08-11T07:50:08;26.60;80.20
63537;DHT22;49686;51.880;5.632;2022-08-11T07:52:35;26.30;78.90
63537;DHT22;49686;51.880;5.632;2022-08-11T07:55:12;26.20;78.20
63537;DHT22;49686;51.880;5.632;2022-08-11T07:57:43;25.30;79.70
63537;DHT22;49686;51.880;5.632;2022-08-11T08:00:34;24.80;81.50
63537;DHT22;49686;51.880;5.632;2022-08-11T08:03:01;24.30;82.90
63537;DHT22;49686;51.880;5.632;2022-08-11T08:05:29;24.10;82.00
63537;DHT22;49686;51.880;5.632;2022-08-11T08:08:07;24.00;82.60
63537;DHT22;49686;51.880;5.632;2022-08-11T08:10:33;24.70;82.30
63537;DHT22;49686;51.880;5.632;2022-08-11T08:13:01;24.10;82.50
63537;DHT22;49686;51.880;5.632;2022-08-11T08:15:27;24.60;80.10
63537;DHT22;49686;51.880;5.632;2022-08-11T08:17:57;25.50;79.70
63537;DHT22;49686;51.880;5.632;2022-08-11T08:20:46;25.60;80.20
63537;DHT22;49686;51.880;5.632;2022-08-11T08:23:13;26.20;78.70
63537;DHT22;49686;51.880;5.632;2022-08-11T08:25:51;26.10;78.90
63537;DHT22;49686;51.880;5.632;2022-08-11T08:28:18;25.20;80.10
63537;DHT22;49686;51.880;5.632;2022-08-11T08:30:46;24.90;80.80
63537;DHT22;49686;51.880;5.632;2022-08-11T08:33:21;25.60;78.70
63537;DHT22;49686;51.880;5.632;2022-08-11T08:35:55;24.90;77.50
63537;DHT22;49686;51.880;5.632;2022-08-11T08:38:25;25.20;77.70
63537;DHT22;49686;51.880;5.632;2022-08-11T08:40:56;25.00;78.50
63537;DHT22;49686;51.880;5.632;2022-08-11T08:43:25;24.90;77.60
63537;DHT22;49686;51.880;5.632;2022-08-11T08:45:54;25.20;78.70
63537;DHT22;49686;51.880;5.632;2022-08-11T08:48:23;26.00;77.40
63537;DHT22;49686;51.880;5.632;2022-08-11T08:50:55;26.00;75.50
63537;DHT22;49686;51.880;5.632;2022-08-11T08:53:24;25.70;76.60
63537;DHT22;49686;51.880;5.632;2022-08-11T08:55:52;25.90;76.80
63537;DHT22;49686;51.880;5.632;2022-08-11T08:58:21;25.60;76.30
63537;DHT22;49686;51.880;5.632;2022-08-11T09:00:53;26.70;76.30
63537;DHT22;49686;51.880;5.632;2022-08-11T09:03:21;25.50;77.60
63537;DHT22;49686;51.880;5.632;2022-08-11T09:06:08;25.80;77.20
63537;DHT22;49686;51.880;5.632;2022-08-11T09:08:35;25.90;76.40
63537;DHT22;49686;51.880;5.632;2022-08-11T09:11:03;26.80;75.30
63537;DHT22;49686;51.880;5.632;2022-08-11T09:13:39;26.60;75.50
63537;DHT22;49686;51.880;5.632;2022-08-11T09:16:10;27.00;74.50
63537;DHT22;49686;51.880;5.632;2022-08-11T09:18:42;27.00;71.60
63537;DHT22;49686;51.880;5.632;2022-08-11T09:21:10;26.60;72.10
63537;DHT22;49686;51.880;5.632;2022-08-11T09:23:37;26.60;73.20
63537;DHT22;49686;51.880;5.632;2022-08-11T09:26:25;26.30;72.10
63537;DHT22;49686;51.880;5.632;2022-08-11T09:28:57;26.70;72.40
63537;DHT22;49686;51.880;5.632;2022-08-11T09:31:26;26.80;71.90
63537;DHT22;49686;51.880;5.632;2022-08-11T09:33:55;27.00;71.90
63537;DHT22;49686;51.880;5.632;2022-08-11T09:36:25;27.80;70.00
63537;DHT22;49686;51.880;5.632;2022-08-11T09:38:58;27.60;70.00
63537;DHT22;49686;51.880;5.632;2022-08-11T09:41:24;27.30;69.70
63537;DHT22;49686;51.880;5.632;2022-08-11T09:43:55;27.50;69.60
63537;DHT22;49686;51.880;5.632;2022-08-11T09:46:23;28.00;68.10
63537;DHT22;49686;51.880;5.632;2022-08-11T09:48:59;27.40;69.10
63537;DHT22;49686;51.880;5.632;2022-08-11T09:51:31;27.50;69.50
63537;DHT22;49686;51.880;5.632;2022-08-11T09:53:58;28.00;68.10
63537;DHT22;49686;51.880;5.632;2022-08-11T09:56:30;28.10;68.70
63537;DHT22;49686;51.880;5.632;2022-08-11T09:58:58;28.10;68.00
63537;DHT22;49686;51.880;5.632;2022-08-11T10:01:28;27.50;68.70
63537;DHT22;49686;51.880;5.632;2022-08-11T10:03:59;28.50;67.00
63537;DHT22;49686;51.880;5.632;2022-08-11T10:06:27;28.50;66.10
63537;DHT22;49686;51.880;5.632;2022-08-11T10:09:01;27.90;66.00
63537;DHT22;49686;51.880;5.632;2022-08-11T10:11:28;27.30;65.60
63537;DHT22;49686;51.880;5.632;2022-08-11T10:13:55;27.40;65.50
63537;DHT22;49686;51.880;5.632;2022-08-11T10:16:42;27.90;65.00
63537;DHT22;49686;51.880;5.632;2022-08-11T10:19:16;28.00;63.90
63537;DHT22;49686;51.880;5.632;2022-08-11T10:21:47;27.60;64.90
63537;DHT22;49686;51.880;5.632;2022-08-11T10:24:15;27.40;63.40
63537;DHT22;49686;51.880;5.632;2022-08-11T10:26:44;27.60;63.00
63537;DHT22;49686;51.880;5.632;2022-08-11T10:29:11;28.10;62.90
63537;DHT22;49686;51.880;5.632;2022-08-11T10:31:42;28.20;62.10
63537;DHT22;49686;51.880;5.632;2022-08-11T10:34:27;28.80;61.60
63537;DHT22;49686;51.880;5.632;2022-08-11T10:36:55;27.60;60.90
63537;DHT22;49686;51.880;5.632;2022-08-11T10:39:23;28.30;60.70
63537;DHT22;49686;51.880;5.632;2022-08-11T10:41:55;27.90;61.70
63537;DHT22;49686;51.880;5.632;2022-08-11T10:44:36;28.90;61.00
63537;DHT22;49686;51.880;5.632;2022-08-11T10:47:09;28.90;58.50
63537;DHT22;49686;51.880;5.632;2022-08-11T10:49:45;28.60;59.20
63537;DHT22;49686;51.880;5.632;2022-08-11T10:52:15;28.40;59.00
63537;DHT22;49686;51.880;5.632;2022-08-11T10:54:42;28.40;59.80
63537;DHT22;49686;51.880;5.632;2022-08-11T10:57:09;28.30;57.40
63537;DHT22;49686;51.880;5.632;2022-08-11T10:59:37;29.00;57.00
63537;DHT22;49686;51.880;5.632;2022-08-11T11:02:03;28.10;58.50
63537;DHT22;49686;51.880;5.632;2022-08-11T11:04:42;28.70;57.40
63537;DHT22;49686;51.880;5.632;2022-08-11T11:07:20;28.80;57.20
63537;DHT22;49686;51.880;5.632;2022-08-11T11:09:48;28.30;56.40
63537;DHT22;49686;51.880;5.632;2022-08-11T11:12:23;28.80;56.20
63537;DHT22;49686;51.880;5.632;2022-08-11T11:14:56;28.10;57.20
63537;DHT22;49686;51.880;5.632;2022-08-11T11:17:27;28.90;56.40
63537;DHT22;49686;51.880;5.632;2022-08-11T11:19:59;29.10;54.90
63537;DHT22;49686;51.880;5.632;2022-08-11T11:22:28;29.30;53.80
63537;DHT22;49686;51.880;5.632;2022-08-11T11:25:03;29.60;54.50
63537;DHT22;49686;51.880;5.632;2022-08-11T11:27:33;29.30;55.60
63537;DHT22;49686;51.880;5.632;2022-08-11T11:30:13;28.90;56.00
63537;DHT22;49686;51.880;5.632;2022-08-11T11:32:52;28.60;54.70
63537;DHT22;49686;51.880;5.632;2022-08-11T11:35:35;29.70;53.20
63537;DHT22;49686;51.880;5.632;2022-08-11T11:38:13;29.60;51.50
63537;DHT22;49686;51.880;5.632;2022-08-11T11:40:42;29.70;51.60
63537;DHT22;49686;51.880;5.632;2022-08-11T11:43:10;30.00;53.00
63537;DHT22;49686;51.880;5.632;2022-08-11T11:45:36;30.00;52.50
63537;DHT22;49686;51.880;5.632;2022-08-11T11:48:05;29.60;52.40
63537;DHT22;49686;51.880;5.632;2022-08-11T11:50:35;30.30;51.80
63537;DHT22;49686;51.880;5.632;2022-08-11T11:53:04;29.80;51.60
63537;DHT22;49686;51.880;5.632;2022-08-11T11:55:31;29.40;51.00
63537;DHT22;49686;51.880;5.632;2022-08-11T11:58:00;30.00;50.80
63537;DHT22;49686;51.880;5.632;2022-08-11T12:00:31;29.70;51.50
63537;DHT22;49686;51.880;5.632;2022-08-11T12:03:03;30.60;50.60
63537;DHT22;49686;51.880;5.632;2022-08-11T12:05:33;30.10;50.50
63537;DHT22;49686;51.880;5.632;2022-08-11T12:08:00;29.50;50.50
63537;DHT22;49686;51.880;5.632;2022-08-11T12:10:40;29.40;50.40
63537;DHT22;49686;51.880;5.632;2022-08-11T12:13:10;29.50;51.30
63537;DHT22;49686;51.880;5.632;2022-08-11T12:15:37;29.80;49.80
63537;DHT22;49686;51.880;5.632;2022-08-11T12:18:23;28.90;49.90
63537;DHT22;49686;51.880;5.632;2022-08-11T12:20:50;29.20;49.80
63537;DHT22;49686;51.880;5.632;2022-08-11T12:23:22;29.90;49.50
63537;DHT22;49686;51.880;5.632;2022-08-11T12:25:49;29.30;48.90
63537;DHT22;49686;51.880;5.632;2022-08-11T12:28:38;29.50;48.80
63537;DHT22;49686;51.880;5.632;2022-08-11T12:31:06;30.20;47.40
63537;DHT22;49686;51.880;5.632;2022-08-11T12:33:33;30.50;48.70
63537;DHT22;49686;51.880;5.632;2022-08-11T12:36:10;30.00;48.60
63537;DHT22;49686;51.880;5.632;2022-08-11T12:38:39;29.80;48.50
63537;DHT22;49686;51.880;5.632;2022-08-11T12:41:06;30.60;47.60
63537;DHT22;49686;51.880;5.632;2022-08-11T12:43:45;29.80;48.20
63537;DHT22;49686;51.880;5.632;2022-08-11T12:46:28;29.40;47.70
63537;DHT22;49686;51.880;5.632;2022-08-11T12:49:02;29.60;48.40
63537;DHT22;49686;51.880;5.632;2022-08-11T12:51:36;30.20;47.10
63537;DHT22;49686;51.880;5.632;2022-08-11T12:54:26;29.90;47.50
63537;DHT22;49686;51.880;5.632;2022-08-11T12:56:59;30.80;47.40
63537;DHT22;49686;51.880;5.632;2022-08-11T12:59:30;29.30;47.00
63537;DHT22;49686;51.880;5.632;2022-08-11T13:01:58;29.70;46.30
63537;DHT22;49686;51.880;5.632;2022-08-11T13:04:25;30.10;47.20
63537;DHT22;49686;51.880;5.632;2022-08-11T13:06:53;29.70;47.30
63537;DHT22;49686;51.880;5.632;2022-08-11T13:09:24;29.50;47.40
63537;DHT22;49686;51.880;5.632;2022-08-11T13:11:50;29.60;47.60
63537;DHT22;49686;51.880;5.632;2022-08-11T13:14:25;29.90;47.30
63537;DHT22;49686;51.880;5.632;2022-08-11T13:16:51;29.80;46.60
63537;DHT22;49686;51.880;5.632;2022-08-11T13:19:20;29.80;47.30
63537;DHT22;49686;51.880;5.632;2022-08-11T13:21:50;30.50;46.90
63537;DHT22;49686;51.880;5.632;2022-08-11T13:24:19;30.20;46.70
63537;DHT22;49686;51.880;5.632;2022-08-11T13:26:46;29.90;46.90
63537;DHT22;49686;51.880;5.632;2022-08-11T13:29:21;29.50;46.60
63537;DHT22;49686;51.880;5.632;2022-08-11T13:31:49;29.50;46.90
63537;DHT22;49686;51.880;5.632;2022-08-11T13:34:20;30.30;46.90
63537;DHT22;49686;51.880;5.632;2022-08-11T13:36:49;30.80;46.80
63537;DHT22;49686;51.880;5.632;2022-08-11T13:39:17;30.60;46.70
63537;DHT22;49686;51.880;5.632;2022-08-11T13:41:45;30.70;46.40
63537;DHT22;49686;51.880;5.632;2022-08-11T13:44:17;30.50;46.10
63537;DHT22;49686;51.880;5.632;2022-08-11T13:46:52;30.50;45.60
63537;DHT22;49686;51.880;5.632;2022-08-11T13:49:20;30.60;45.60
63537;DHT22;49686;51.880;5.632;2022-08-11T13:51:53;31.00;45.60
63537;DHT22;49686;51.880;5.632;2022-08-11T13:54:25;30.70;44.60
63537;DHT22;49686;51.880;5.632;2022-08-11T13:56:55;30.90;44.50
63537;DHT22;49686;51.880;5.632;2022-08-11T13:59:23;31.10;44.70
63537;DHT22;49686;51.880;5.632;2022-08-11T14:02:00;30.10;45.10
63537;DHT22;49686;51.880;5.632;2022-08-11T14:04:52;30.20;46.20
63537;DHT22;49686;51.880;5.632;2022-08-11T14:07:20;29.70;45.80
63537;DHT22;49686;51.880;5.632;2022-08-11T14:09:54;29.70;45.50
63537;DHT22;49686;51.880;5.632;2022-08-11T14:12:27;30.50;44.40
63537;DHT22;49686;51.880;5.632;2022-08-11T14:15:01;31.10;44.40
63537;DHT22;49686;51.880;5.632;2022-08-11T14:17:35;30.80;45.20
63537;DHT22;49686;51.880;5.632;2022-08-11T14:20:17;31.10;45.20
63537;DHT22;49686;51.880;5.632;2022-08-11T14:23:04;30.30;45.20
63537;DHT22;49686;51.880;5.632;2022-08-11T14:25:33;30.60;45.90
63537;DHT22;49686;51.880;5.632;2022-08-11T14:28:20;30.60;44.60
63537;DHT22;49686;51.880;5.632;2022-08-11T14:31:02;30.70;45.10
63537;DHT22;49686;51.880;5.632;2022-08-11T14:33:31;30.60;45.30
63537;DHT22;49686;51.880;5.632;2022-08-11T14:36:19;30.60;45.10
63537;DHT22;49686;51.880;5.632;2022-08-11T14:39:02;30.00;45.10
63537;DHT22;49686;51.880;5.632;2022-08-11T14:41:33;29.90;45.90
63537;DHT22;49686;51.880;5.632;2022-08-11T14:44:03;30.70;44.00
63537;DHT22;49686;51.880;5.632;2022-08-11T14:46:42;30.30;44.60
63537;DHT22;49686;51.880;5.632;2022-08-11T14:49:09;30.30;44.70
63537;DHT22;49686;51.880;5.632;2022-08-11T14:51:37;29.80;45.50
63537;DHT22;49686;51.880;5.632;2022-08-11T14:54:04;29.80;45.60
63537;DHT22;49686;51.880;5.632;2022-08-11T14:56:31;30.40;45.80
63537;DHT22;49686;51.880;5.632;2022-08-11T14:58:59;30.50;46.30
63537;DHT22;49686;51.880;5.632;2022-08-11T15:01:26;29.90;46.10
63537;DHT22;49686;51.880;5.632;2022-08-11T15:03:53;30.10;46.30
63537;DHT22;49686;51.880;5.632;2022-08-11T15:06:41;29.80;45.40
63537;DHT22;49686;51.880;5.632;2022-08-11T15:09:07;29.80;46.00
63537;DHT22;49686;51.880;5.632;2022-08-11T15:11:46;30.10;45.90
63537;DHT22;49686;51.880;5.632;2022-08-11T15:14:14;30.20;45.30
63537;DHT22;49686;51.880;5.632;2022-08-11T15:16:43;30.00;45.50
63537;DHT22;49686;51.880;5.632;2022-08-11T15:19:10;30.60;45.00
63537;DHT22;49686;51.880;5.632;2022-08-11T15:21:41;30.40;46.30
63537;DHT22;49686;51.880;5.632;2022-08-11T15:24:07;30.00;45.50
63537;DHT22;49686;51.880;5.632;2022-08-11T15:26:37;29.70;45.90
63537;DHT22;49686;51.880;5.632;2022-08-11T15:29:08;29.60;45.20
63537;DHT22;49686;51.880;5.632;2022-08-11T15:31:37;29.80;45.20
63537;DHT22;49686;51.880;5.632;2022-08-11T15:34:05;29.80;45.70
63537;DHT22;49686;51.880;5.632;2022-08-11T15:36:33;29.70;45.60
63537;DHT22;49686;51.880;5.632;2022-08-11T15:39:02;29.80;45.30
63537;DHT22;49686;51.880;5.632;2022-08-11T15:41:40;29.70;45.40
63537;DHT22;49686;51.880;5.632;2022-08-11T15:44:11;30.10;44.90
63537;DHT22;49686;51.880;5.632;2022-08-11T15:46:43;30.10;45.10
63537;DHT22;49686;51.880;5.632;2022-08-11T15:49:12;30.10;43.90
63537;DHT22;49686;51.880;5.632;2022-08-11T15:51:51;29.80;44.00
63537;DHT22;49686;51.880;5.632;2022-08-11T15:54:24;29.50;44.70
63537;DHT22;49686;51.880;5.632;2022-08-11T15:56:52;29.60;44.50
63537;DHT22;49686;51.880;5.632;2022-08-11T15:59:23;29.80;44.20
63537;DHT22;49686;51.880;5.632;2022-08-11T16:02:14;29.30;44.30
63537;DHT22;49686;51.880;5.632;2022-08-11T16:04:43;29.00;44.60
63537;DHT22;49686;51.880;5.632;2022-08-11T16:07:15;29.40;44.60
63537;DHT22;49686;51.880;5.632;2022-08-11T16:09:45;29.30;44.20
63537;DHT22;49686;51.880;5.632;2022-08-11T16:12:22;29.30;44.70
63537;DHT22;49686;51.880;5.632;2022-08-11T16:14:51;29.60;44.80
63537;DHT22;49686;51.880;5.632;2022-08-11T16:17:23;29.20;45.10
63537;DHT22;49686;51.880;5.632;2022-08-11T16:19:53;29.40;45.10
63537;DHT22;49686;51.880;5.632;2022-08-11T16:22:27;29.20;44.30
63537;DHT22;49686;51.880;5.632;2022-08-11T16:24:54;29.00;44.90
63537;DHT22;49686;51.880;5.632;2022-08-11T16:27:44;29.10;44.70
63537;DHT22;49686;51.880;5.632;2022-08-11T16:30:12;29.00;44.50
63537;DHT22;49686;51.880;5.632;2022-08-11T16:32:40;29.50;44.70
63537;DHT22;49686;51.880;5.632;2022-08-11T16:35:10;29.20;43.70
63537;DHT22;49686;51.880;5.632;2022-08-11T16:37:39;28.90;43.90
63537;DHT22;49686;51.880;5.632;2022-08-11T16:40:07;29.10;44.40
63537;DHT22;49686;51.880;5.632;2022-08-11T16:42:38;29.20;44.10
63537;DHT22;49686;51.880;5.632;2022-08-11T16:45:24;29.10;44.30
63537;DHT22;49686;51.880;5.632;2022-08-11T16:47:52;29.00;44.50
63537;DHT22;49686;51.880;5.632;2022-08-11T16:50:29;28.90;45.20
63537;DHT22;49686;51.880;5.632;2022-08-11T16:52:56;28.90;45.20
63537;DHT22;49686;51.880;5.632;2022-08-11T16:55:23;28.80;45.00
63537;DHT22;49686;51.880;5.632;2022-08-11T16:58:10;28.70;45.40